createdAt,value
2018-08-16T00:00:32.672Z,7.57
2018-08-16T00:03:01.815Z,18.00
2018-08-16T00:05:31.028Z,8.57
2018-08-16T00:08:00.371Z,10.03
2018-08-16T00:10:35.497Z,8.83
2018-08-16T00:13:05.090Z,8.77
2018-08-16T00:15:38.423Z,10.43
2018-08-16T00:18:07.902Z,7.33
2018-08-16T00:20:38.029Z,10.53
2018-08-16T00:23:07.069Z,8.10
2018-08-16T00:25:36.255Z,8.40
2018-08-16T00:28:05.657Z,9.57
2018-08-16T00:30:34.890Z,6.33
2018-08-16T00:33:03.791Z,10.20
2018-08-16T00:35:32.718Z,9.43
2018-08-16T00:38:01.785Z,6.20
2018-08-16T00:40:31.075Z,8.33
2018-08-16T00:43:01.128Z,8.80
2018-08-16T00:45:30.111Z,6.47
2018-08-16T00:47:59.084Z,6.63
2018-08-16T00:50:28.064Z,9.43
2018-08-16T00:52:56.901Z,8.20
2018-08-16T00:55:26.237Z,7.10
2018-08-16T00:58:02.569Z,6.87
2018-08-16T01:00:32.377Z,7.80
2018-08-16T01:03:07.553Z,10.07
2018-08-16T01:05:37.399Z,7.97
2018-08-16T01:08:06.579Z,12.57
2018-08-16T01:10:36.073Z,9.77
2018-08-16T01:13:05.434Z,14.70
2018-08-16T01:15:34.430Z,11.50
2018-08-16T01:18:03.448Z,10.10
2018-08-16T01:20:32.725Z,11.10
2018-08-16T01:23:01.638Z,9.93
2018-08-16T01:25:30.420Z,7.17
2018-08-16T01:28:00.654Z,10.50
2018-08-16T01:30:37.788Z,7.30
2018-08-16T01:33:07.262Z,8.80
2018-08-16T01:35:38.327Z,9.57
2018-08-16T01:38:07.871Z,6.80
2018-08-16T01:40:38.503Z,6.83
2018-08-16T01:43:07.732Z,8.50
2018-08-16T01:45:37.647Z,8.73
2018-08-16T01:48:10.988Z,7.77
2018-08-16T01:50:40.210Z,7.70
2018-08-16T01:53:09.325Z,12.53
2018-08-16T01:55:38.212Z,9.17
2018-08-16T01:58:07.266Z,9.33
2018-08-16T02:00:36.285Z,10.20
2018-08-16T02:03:05.485Z,7.63
2018-08-16T02:05:34.431Z,12.37
2018-08-16T02:08:03.411Z,10.80
2018-08-16T02:10:32.535Z,8.67
2018-08-16T02:13:01.629Z,9.13
2018-08-16T02:15:30.632Z,10.03
2018-08-16T02:18:00.070Z,10.17
2018-08-16T02:20:28.988Z,11.07
2018-08-16T02:22:57.920Z,7.40
2018-08-16T02:25:27.565Z,9.23
2018-08-16T02:27:56.589Z,10.57
2018-08-16T02:30:25.663Z,8.90
2018-08-16T02:32:55.450Z,11.73
2018-08-16T02:35:24.408Z,10.17
2018-08-16T02:37:54.322Z,10.30
2018-08-16T02:40:23.784Z,11.17
2018-08-16T02:42:52.605Z,10.27
2018-08-16T02:45:21.529Z,8.60
2018-08-16T02:47:50.450Z,14.17
2018-08-16T02:50:19.372Z,7.73
2018-08-16T02:52:48.470Z,11.50
2018-08-16T02:55:17.575Z,10.67
2018-08-16T02:57:46.777Z,9.97
2018-08-16T03:00:15.824Z,12.00
2018-08-16T03:02:44.956Z,12.00
2018-08-16T03:05:13.848Z,10.63
2018-08-16T03:07:42.893Z,9.17
2018-08-16T03:10:12.259Z,8.73
2018-08-16T03:12:41.250Z,10.53
2018-08-16T03:15:11.122Z,9.00
2018-08-16T03:17:40.985Z,10.60
2018-08-16T03:20:09.967Z,9.53
2018-08-16T03:22:39.185Z,11.00
2018-08-16T03:25:08.640Z,10.53
2018-08-16T03:27:41.435Z,10.23
2018-08-16T03:30:17.053Z,8.73
2018-08-16T03:32:45.892Z,10.70
2018-08-16T03:35:14.859Z,10.13
2018-08-16T03:37:43.925Z,11.23
2018-08-16T03:40:12.788Z,10.90
2018-08-16T03:42:42.536Z,9.07
2018-08-16T03:45:11.553Z,8.57
2018-08-16T03:47:40.516Z,9.77
2018-08-16T03:50:09.785Z,11.67
2018-08-16T03:52:38.956Z,11.93
2018-08-16T03:55:08.026Z,10.63
2018-08-16T03:57:37.107Z,9.40
2018-08-16T04:00:07.822Z,7.07
2018-08-16T04:02:36.827Z,10.47
2018-08-16T04:05:06.462Z,10.90
2018-08-16T04:07:35.760Z,12.40
2018-08-16T04:10:05.186Z,10.10
2018-08-16T04:12:34.182Z,8.87
2018-08-16T04:15:03.860Z,15.10
2018-08-16T04:17:35.112Z,14.67
2018-08-16T04:20:05.277Z,9.30
2018-08-16T04:22:34.639Z,8.87
2018-08-16T04:25:03.999Z,16.07
2018-08-16T04:27:33.368Z,20.90
2018-08-16T04:30:02.345Z,12.27
2018-08-16T04:32:31.473Z,10.33
2018-08-16T04:35:00.722Z,10.93
2018-08-16T04:37:29.827Z,11.33
2018-08-16T04:39:58.947Z,10.50
2018-08-16T04:42:29.138Z,15.50
2018-08-16T04:44:58.104Z,14.37
2018-08-16T04:47:26.985Z,12.73
2018-08-16T04:49:55.765Z,21.17
2018-08-16T04:52:24.795Z,13.57
2018-08-16T04:54:53.766Z,8.67
2018-08-16T04:57:24.103Z,8.70
2018-08-16T04:59:53.182Z,11.50
2018-08-16T05:02:22.131Z,15.03
2018-08-16T05:04:50.960Z,17.90
2018-08-16T05:07:19.818Z,10.97
2018-08-16T05:09:48.941Z,14.95
2018-08-16T05:12:17.849Z,9.53
2018-08-16T05:14:46.768Z,8.70
2018-08-16T05:17:15.621Z,8.78
2018-08-16T05:19:45.138Z,14.43
2018-08-16T05:22:14.115Z,21.35
2018-08-16T05:24:42.956Z,14.93
2018-08-16T05:27:12.440Z,19.60
2018-08-16T05:29:41.411Z,12.90
2018-08-16T05:32:10.170Z,8.35
2018-08-16T05:34:39.504Z,10.10
2018-08-16T05:37:08.427Z,13.28
2018-08-16T05:39:37.225Z,12.55
2018-08-16T05:42:06.380Z,13.05
2018-08-16T05:44:35.266Z,8.85
2018-08-16T05:47:04.112Z,9.53
2018-08-16T05:49:33.430Z,14.38
2018-08-16T05:52:02.353Z,14.03
2018-08-16T05:54:31.100Z,9.28
2018-08-16T05:57:00.512Z,12.15
2018-08-16T05:59:29.426Z,15.30
2018-08-16T06:01:58.206Z,15.03
2018-08-16T06:04:27.699Z,14.80
2018-08-16T06:06:56.540Z,14.18
2018-08-16T06:09:25.500Z,21.75
2018-08-16T06:11:54.855Z,19.92
2018-08-16T06:14:23.871Z,17.55
2018-08-16T06:16:52.731Z,10.65
2018-08-16T06:19:21.581Z,13.60
2018-08-16T06:21:50.389Z,8.38
2018-08-16T06:24:19.367Z,9.78
2018-08-16T06:26:48.800Z,7.55
2018-08-16T06:29:17.691Z,10.45
2018-08-16T06:31:46.618Z,7.33
2018-08-16T06:34:15.541Z,10.20
2018-08-16T06:36:44.524Z,12.18
2018-08-16T06:39:14.012Z,9.20
2018-08-16T06:41:43.326Z,11.12
2018-08-16T06:44:12.254Z,12.68
2018-08-16T06:46:41.162Z,9.25
2018-08-16T06:49:10.047Z,6.92
2018-08-16T06:51:38.932Z,7.75
2018-08-16T06:54:07.781Z,8.25
2018-08-16T06:56:37.093Z,7.83
2018-08-16T06:59:06.042Z,12.78
2018-08-16T07:01:34.937Z,14.30
2018-08-16T07:04:04.360Z,9.93
2018-08-16T07:06:33.276Z,6.72
2018-08-16T07:09:02.003Z,9.70
2018-08-16T07:11:31.210Z,7.47
2018-08-16T07:14:00.132Z,7.67
2018-08-16T07:16:28.999Z,8.85
2018-08-16T07:18:59.363Z,10.58
2018-08-16T07:21:28.168Z,10.20
2018-08-16T07:23:57.062Z,13.38
2018-08-16T07:26:26.408Z,7.55
2018-08-16T07:28:55.282Z,6.75
2018-08-16T07:31:24.180Z,7.10
2018-08-16T07:33:53.123Z,10.20
2018-08-16T07:36:21.880Z,8.80
2018-08-16T07:38:50.743Z,13.35
2018-08-16T07:41:20.218Z,8.05
2018-08-16T07:43:49.279Z,9.75
2018-08-16T07:46:18.232Z,12.30
2018-08-16T07:48:48.340Z,7.35
2018-08-16T07:51:17.300Z,11.38
2018-08-16T07:53:46.100Z,11.12
2018-08-16T07:56:15.111Z,9.83
2018-08-16T07:58:43.958Z,9.73
2018-08-16T08:01:12.812Z,9.28
2018-08-16T08:03:41.680Z,13.08
2018-08-16T08:06:10.508Z,6.80
2018-08-16T08:08:39.329Z,9.28
2018-08-16T08:11:08.759Z,8.73
2018-08-16T08:13:37.645Z,8.00
2018-08-16T08:16:06.613Z,7.03
2018-08-16T08:18:35.941Z,6.67
2018-08-16T08:21:04.890Z,8.33
2018-08-16T08:23:33.720Z,7.10
2018-08-16T08:26:02.718Z,13.10
2018-08-16T08:28:31.573Z,8.48
2018-08-16T08:31:00.542Z,6.17
2018-08-16T08:33:30.104Z,5.60
2018-08-16T08:36:09.841Z,8.48
2018-08-16T08:38:38.722Z,8.50
2018-08-16T08:41:07.712Z,16.10
2018-08-16T08:43:49.197Z,8.95
2018-08-16T08:46:18.104Z,6.08
2018-08-16T08:48:47.081Z,5.90
2018-08-16T08:51:16.458Z,6.70
2018-08-16T08:54:56.400Z,8.10
2018-08-16T08:57:36.947Z,8.95
2018-08-16T09:00:07.609Z,8.65
2018-08-16T09:02:36.681Z,6.60
2018-08-16T09:05:06.595Z,6.00
2018-08-16T09:07:35.381Z,8.00
2018-08-16T09:11:15.953Z,7.55
2018-08-16T09:13:56.912Z,9.73
2018-08-16T09:16:30.454Z,9.30
2018-08-16T09:18:59.538Z,6.92
2018-08-16T09:21:29.145Z,12.50
2018-08-16T09:23:58.387Z,9.28
2018-08-16T09:26:32.320Z,11.33
2018-08-16T09:29:01.250Z,6.92
2018-08-16T09:31:40.961Z,6.03
2018-08-16T09:34:18.957Z,9.18
2018-08-16T09:36:47.816Z,6.47
2018-08-16T09:39:16.838Z,6.30
2018-08-16T09:41:45.780Z,9.60
2018-08-16T09:44:14.619Z,12.25
2018-08-16T09:46:56.108Z,5.85
2018-08-16T09:49:24.993Z,6.72
2018-08-16T09:51:54.146Z,7.20
2018-08-16T09:54:23.099Z,11.35
2018-08-16T09:56:52.518Z,10.13
2018-08-16T09:59:21.476Z,4.12
2018-08-16T10:01:50.419Z,11.40
2018-08-16T10:04:19.258Z,9.53
2018-08-16T10:06:48.152Z,8.93
2018-08-16T10:09:25.527Z,7.58
2018-08-16T10:11:55.302Z,9.10
2018-08-16T10:14:24.236Z,11.12
2018-08-16T10:16:53.597Z,7.03
2018-08-16T10:19:22.911Z,7.40
2018-08-16T10:21:51.690Z,5.97
2018-08-16T10:24:20.930Z,5.28
2018-08-16T10:26:49.994Z,5.35
2018-08-16T10:29:18.924Z,6.00
2018-08-16T10:31:48.772Z,10.93
2018-08-16T10:34:17.513Z,6.12
2018-08-16T10:36:46.423Z,6.08
2018-08-16T10:39:17.436Z,6.15
2018-08-16T10:41:46.588Z,5.58
2018-08-16T10:44:15.705Z,8.60
2018-08-16T10:53:30.133Z,10.13
2018-08-16T10:55:59.835Z,4.60
2018-08-16T10:58:28.819Z,7.58
2018-08-16T11:00:58.309Z,7.00
2018-08-16T11:03:27.208Z,7.33
2018-08-16T11:05:56.545Z,12.03
2018-08-16T11:08:26.033Z,10.03
2018-08-16T11:10:55.002Z,7.53
2018-08-16T11:13:23.916Z,8.78
2018-08-16T11:15:53.202Z,8.20
2018-08-16T11:21:00.579Z,6.25
2018-08-16T11:23:29.699Z,4.40
2018-08-16T11:25:59.092Z,10.95
2018-08-16T11:28:28.091Z,6.97
2018-08-16T11:30:57.013Z,8.20
2018-08-16T11:33:26.066Z,7.97
2018-08-16T11:35:55.320Z,17.30
2018-08-16T11:38:25.376Z,7.00
2018-08-16T11:40:54.316Z,5.37
2018-08-16T11:43:23.542Z,7.45
2018-08-16T11:45:52.334Z,6.47
2018-08-16T11:48:21.222Z,5.95
2018-08-16T11:57:35.355Z,6.53
2018-08-16T12:00:04.421Z,6.15
2018-08-16T12:02:33.265Z,7.50
2018-08-16T12:05:02.416Z,5.85
2018-08-16T12:07:31.204Z,10.58
2018-08-16T12:10:00.088Z,7.05
2018-08-16T12:12:28.974Z,7.50
2018-08-16T12:14:57.753Z,8.38
2018-08-16T12:17:26.677Z,8.78
2018-08-16T12:19:56.021Z,6.40
2018-08-16T12:22:24.860Z,6.40
2018-08-16T12:24:53.795Z,11.28
2018-08-16T12:27:23.022Z,7.40
2018-08-16T12:29:51.947Z,9.83
2018-08-16T12:32:20.825Z,6.85
2018-08-16T12:34:50.470Z,6.35
2018-08-16T12:37:19.358Z,6.62
2018-08-16T12:39:48.312Z,9.85
2018-08-16T12:42:17.399Z,8.08
2018-08-16T12:44:46.342Z,6.47
2018-08-16T12:47:15.220Z,6.97
2018-08-16T12:49:44.100Z,4.22
2018-08-16T12:52:12.856Z,9.45
2018-08-16T12:54:41.697Z,10.78
2018-08-16T12:57:10.931Z,6.67
2018-08-16T12:59:39.712Z,7.22
2018-08-16T13:02:08.763Z,8.90
2018-08-16T13:04:38.190Z,6.87
2018-08-16T13:07:07.043Z,5.05
2018-08-16T13:09:35.945Z,8.98
2018-08-16T13:12:05.269Z,7.22
2018-08-16T13:14:34.029Z,6.60
2018-08-16T13:17:02.815Z,10.15
2018-08-16T13:20:34.793Z,11.55
2018-08-16T13:23:03.724Z,5.78
2018-08-16T13:25:32.603Z,10.32
2018-08-16T13:28:01.525Z,7.58
2018-08-16T13:30:30.473Z,8.75
2018-08-16T13:32:59.273Z,6.97
2018-08-16T13:35:28.150Z,10.80
2018-08-16T13:37:57.055Z,6.33
2018-08-16T13:40:25.866Z,4.12
2018-08-16T13:42:54.657Z,4.85
2018-08-16T13:45:23.602Z,7.90
2018-08-16T13:47:52.429Z,9.33
2018-08-16T13:50:21.282Z,10.58
2018-08-16T13:52:50.081Z,6.10
2018-08-16T13:55:19.002Z,6.08
2018-08-16T13:57:48.365Z,15.72
2018-08-16T14:00:17.182Z,11.08
2018-08-16T14:02:46.131Z,9.48
2018-08-16T14:05:15.047Z,4.42
2018-08-16T14:07:43.976Z,6.20
2018-08-16T14:10:12.935Z,9.48
2018-08-16T14:12:42.559Z,6.72
2018-08-16T14:15:11.391Z,12.05
2018-08-16T14:17:40.179Z,5.60
2018-08-16T14:20:09.515Z,7.12
2018-08-16T14:22:38.303Z,7.05
2018-08-16T14:25:07.641Z,6.22
2018-08-16T14:27:36.494Z,11.60
2018-08-16T14:30:06.848Z,7.78
2018-08-16T14:32:35.894Z,9.23
2018-08-16T14:35:04.984Z,10.50
2018-08-16T14:37:35.446Z,8.35
2018-08-16T14:40:04.374Z,7.37
2018-08-16T14:42:33.294Z,7.55
2018-08-16T14:45:02.232Z,11.40
2018-08-16T14:47:31.240Z,7.97
2018-08-16T14:50:00.157Z,11.22
2018-08-16T14:52:28.967Z,6.17
2018-08-16T14:54:57.888Z,8.95
2018-08-16T14:57:26.763Z,10.78
2018-08-16T14:59:55.501Z,9.05
2018-08-16T15:02:24.473Z,7.33
2018-08-16T15:04:53.429Z,10.08
2018-08-16T15:07:22.416Z,8.75
2018-08-16T15:09:51.630Z,5.90
2018-08-16T15:12:20.498Z,7.78
2018-08-16T15:14:49.330Z,8.40
2018-08-16T15:17:18.332Z,7.60
2018-08-16T15:19:47.276Z,6.20
2018-08-16T15:22:16.251Z,5.65
2018-08-16T15:24:45.366Z,13.35
2018-08-16T15:27:14.145Z,10.38
2018-08-16T15:29:43.076Z,6.17
2018-08-16T15:32:12.268Z,7.20
2018-08-16T15:34:41.024Z,10.98
2018-08-16T15:37:10.005Z,9.35
2018-08-16T15:39:39.295Z,5.30
2018-08-16T15:42:08.113Z,9.75
2018-08-16T15:44:36.963Z,7.35
2018-08-16T15:47:06.377Z,7.47
2018-08-16T15:49:35.250Z,11.45
2018-08-16T15:52:04.215Z,8.53
2018-08-16T15:54:33.478Z,10.18
2018-08-16T16:03:47.411Z,9.40
2018-08-16T16:06:16.433Z,7.47
2018-08-16T16:08:45.276Z,9.73
2018-08-16T16:11:14.689Z,8.13
2018-08-16T16:13:43.680Z,7.05
2018-08-16T16:16:12.539Z,12.63
2018-08-16T16:18:41.984Z,8.73
2018-08-16T16:21:10.929Z,10.32
2018-08-16T16:23:39.803Z,11.30
2018-08-16T16:26:09.060Z,11.95
2018-08-16T16:28:37.994Z,6.30
2018-08-16T16:32:09.588Z,9.10
2018-08-16T16:34:38.424Z,8.93
2018-08-16T16:37:07.312Z,4.97
2018-08-16T16:39:36.315Z,6.42
2018-08-16T16:42:05.302Z,10.65
2018-08-16T16:44:33.974Z,13.25
2018-08-16T16:47:03.221Z,9.00
2018-08-16T16:49:32.101Z,12.65
2018-08-16T16:52:01.008Z,9.85
2018-08-16T16:54:29.985Z,10.60
2018-08-16T16:56:58.936Z,10.23
2018-08-16T16:59:27.849Z,8.05
2018-08-16T17:01:56.759Z,10.15
2018-08-16T17:04:25.636Z,9.68
2018-08-16T17:06:54.856Z,8.95
2018-08-16T17:09:24.258Z,8.65
2018-08-16T17:12:55.556Z,11.70
2018-08-16T17:15:24.613Z,6.60
2018-08-16T17:17:53.538Z,10.15
2018-08-16T17:20:22.356Z,8.33
2018-08-16T17:22:51.220Z,9.48
2018-08-16T17:25:20.002Z,8.63
2018-08-16T17:27:48.825Z,10.90
2018-08-16T17:30:18.090Z,8.23
2018-08-16T17:32:46.958Z,7.20
2018-08-16T17:35:15.843Z,8.43
2018-08-16T17:37:45.112Z,11.78
2018-08-16T17:40:14.033Z,9.80
2018-08-16T17:44:12.362Z,8.58
2018-08-16T17:46:41.368Z,10.30
2018-08-16T17:49:10.337Z,7.08
2018-08-16T17:51:39.467Z,8.85
2018-08-16T17:54:08.311Z,9.33
2018-08-16T17:56:37.127Z,12.23
2018-08-16T17:59:06.385Z,11.45
2018-08-16T18:01:35.366Z,9.05
2018-08-16T18:04:04.294Z,8.95
2018-08-16T18:06:33.241Z,8.80
2018-08-16T18:09:02.139Z,9.28
2018-08-16T18:11:30.953Z,7.50
2018-08-16T18:15:02.709Z,7.92
2018-08-16T18:17:31.560Z,8.03
2018-08-16T18:20:00.524Z,7.42
2018-08-16T18:22:29.834Z,9.78
2018-08-16T18:24:58.824Z,10.45
2018-08-16T18:27:27.663Z,8.40
2018-08-16T18:29:56.638Z,12.73
2018-08-16T18:32:25.608Z,9.18
2018-08-16T18:34:54.617Z,10.98
2018-08-16T18:37:23.705Z,8.33
2018-08-16T18:39:52.766Z,11.12
2018-08-16T18:42:21.952Z,10.40
2018-08-16T18:44:51.419Z,13.55
2018-08-16T18:47:20.713Z,17.80
2018-08-16T18:49:49.861Z,24.30
2018-08-16T18:52:18.782Z,28.05
2018-08-16T18:54:47.748Z,23.32
2018-08-16T18:57:16.806Z,13.80
2018-08-16T18:59:45.982Z,13.55
2018-08-16T19:02:14.983Z,10.45
2018-08-16T19:04:43.835Z,17.30
2018-08-16T19:07:12.822Z,11.50
2018-08-16T19:09:41.674Z,9.05
2018-08-16T19:12:10.580Z,12.43
2018-08-16T19:14:39.740Z,8.58
2018-08-16T19:17:08.639Z,7.83
2018-08-16T19:19:37.379Z,7.60
2018-08-16T19:22:06.620Z,10.93
2018-08-16T19:24:35.497Z,12.37
2018-08-16T19:27:04.459Z,10.30
2018-08-16T19:29:33.332Z,9.17
2018-08-16T19:32:02.233Z,15.47
2018-08-16T19:34:31.062Z,12.25
2018-08-16T19:37:00.359Z,9.40
2018-08-16T19:39:29.238Z,16.62
2018-08-16T19:41:58.119Z,19.07
2018-08-16T19:44:27.371Z,14.57
2018-08-16T19:46:56.285Z,17.50
2018-08-16T19:49:25.226Z,16.97
2018-08-16T19:51:54.198Z,21.57
2018-08-16T19:54:23.242Z,15.77
2018-08-16T19:56:52.297Z,20.17
2018-08-16T19:59:21.505Z,18.47
2018-08-16T20:01:50.379Z,16.93
2018-08-16T20:04:19.281Z,17.73
2018-08-16T20:06:48.624Z,13.03
2018-08-16T20:09:17.524Z,14.53
2018-08-16T20:11:46.532Z,13.90
2018-08-16T20:14:15.524Z,12.67
2018-08-16T20:16:44.553Z,15.70
2018-08-16T20:19:13.507Z,13.53
2018-08-16T20:21:44.762Z,11.53
2018-08-16T20:24:13.771Z,12.53
2018-08-16T20:26:43.031Z,10.50
2018-08-16T20:29:12.052Z,15.07
2018-08-16T20:31:43.175Z,12.93
2018-08-16T20:34:12.564Z,11.87
2018-08-16T20:36:41.634Z,13.80
2018-08-16T20:39:10.720Z,11.30
2018-08-16T20:41:40.002Z,13.87
2018-08-16T20:44:10.328Z,12.97
2018-08-16T20:46:39.673Z,13.97
2018-08-16T20:49:09.194Z,15.27
2018-08-16T20:51:38.714Z,16.63
2018-08-16T20:54:07.903Z,15.93
2018-08-16T20:56:36.910Z,16.40
2018-08-16T20:59:06.018Z,14.17
2018-08-16T21:01:35.119Z,17.87
2018-08-16T21:04:04.272Z,18.67
2018-08-16T21:06:33.156Z,21.57
2018-08-16T21:09:02.208Z,15.97
2018-08-16T21:11:31.235Z,14.57
2018-08-16T21:14:00.365Z,14.63
2018-08-16T21:16:29.426Z,12.80
2018-08-16T21:18:59.086Z,10.77
2018-08-16T21:21:28.043Z,13.30
2018-08-16T21:23:57.034Z,11.27
2018-08-16T21:26:26.571Z,12.23
2018-08-16T21:28:55.395Z,10.90
2018-08-16T21:31:24.303Z,14.47
2018-08-16T21:33:53.843Z,13.27
2018-08-16T21:36:22.785Z,13.47
2018-08-16T21:38:51.813Z,11.80
2018-08-16T21:41:20.780Z,11.57
2018-08-16T21:43:49.815Z,13.27
2018-08-16T21:46:18.667Z,15.73
2018-08-16T21:48:47.690Z,11.00
2018-08-16T21:51:16.826Z,12.83
2018-08-16T21:53:45.727Z,14.10
2018-08-16T21:56:15.079Z,16.67
2018-08-16T21:58:43.991Z,12.23
2018-08-16T22:01:13.238Z,12.70
2018-08-16T22:03:42.729Z,15.30
2018-08-16T22:06:16.150Z,11.83
2018-08-16T22:08:52.233Z,11.07
2018-08-16T22:11:21.223Z,11.23
2018-08-16T22:13:50.305Z,12.90
2018-08-16T22:16:19.908Z,11.67
2018-08-16T22:18:48.934Z,11.13
2018-08-16T22:21:17.984Z,11.77
2018-08-16T22:23:47.579Z,12.57
2018-08-16T22:26:16.972Z,12.47
2018-08-16T22:28:45.913Z,16.60
2018-08-16T22:31:15.416Z,14.70
2018-08-16T22:33:44.450Z,13.30
2018-08-16T22:36:13.418Z,12.70
2018-08-16T22:38:42.550Z,10.00
2018-08-16T22:41:11.532Z,11.37
2018-08-16T22:43:40.427Z,11.60
2018-08-16T22:46:09.524Z,12.50
2018-08-16T22:48:38.413Z,13.57
2018-08-16T22:51:07.686Z,13.30
2018-08-16T22:53:36.832Z,12.30
2018-08-16T22:56:05.901Z,12.30
2018-08-16T22:58:35.005Z,15.13
2018-08-16T23:01:04.558Z,15.97
2018-08-16T23:03:33.616Z,12.67
2018-08-16T23:06:02.679Z,15.37
2018-08-16T23:08:32.263Z,12.40
2018-08-16T23:11:01.225Z,13.20
2018-08-16T23:13:30.321Z,13.40
2018-08-16T23:15:59.973Z,14.33
2018-08-16T23:18:28.988Z,16.93
2018-08-16T23:20:58.172Z,11.83
2018-08-16T23:23:27.454Z,12.70
2018-08-16T23:25:56.496Z,13.03
2018-08-16T23:28:25.508Z,13.37
2018-08-16T23:30:55.096Z,13.57
2018-08-16T23:33:24.127Z,13.17
2018-08-16T23:35:53.275Z,13.30
2018-08-16T23:38:22.385Z,16.33
2018-08-16T23:40:51.436Z,15.57
2018-08-16T23:43:20.519Z,16.27
2018-08-16T23:45:49.580Z,14.73
2018-08-16T23:48:27.531Z,17.20
2018-08-16T23:50:56.713Z,18.50
2018-08-16T23:53:25.708Z,17.67
2018-08-16T23:55:54.840Z,17.00
2018-08-16T23:58:24.010Z,18.17
